sensor_id;sensor_type;location;lat;lon;timestamp;temperature;humidity
43808;DHT22;29438;50.664;10.098;2024-03-02T00:01:06;6.00;91.50
43808;DHT22;29438;50.664;10.098;2024-03-02T00:03:32;5.90;91.50
43808;DHT22;29438;50.664;10.098;2024-03-02T00:05:58;5.90;91.70
43808;DHT22;29438;50.664;10.098;2024-03-02T00:08:25;5.80;91.90
43808;DHT22;29438;50.664;10.098;2024-03-02T00:10:58;5.80;92.00
43808;DHT22;29438;50.664;10.098;2024-03-02T00:13:24;5.80;92.20
43808;DHT22;29438;50.664;10.098;2024-03-02T00:15:56;5.70;92.40
43808;DHT22;29438;50.664;10.098;2024-03-02T00:18:33;5.70;92.50
43808;DHT22;29438;50.664;10.098;2024-03-02T00:21:00;5.70;92.60
43808;DHT22;29438;50.664;10.098;2024-03-02T00:23:33;5.60;92.80
43808;DHT22;29438;50.664;10.098;2024-03-02T00:25:59;5.60;92.70
43808;DHT22;29438;50.664;10.098;2024-03-02T00:28:31;5.60;92.90
43808;DHT22;29438;50.664;10.098;2024-03-02T00:31:10;5.50;92.90
43808;DHT22;29438;50.664;10.098;2024-03-02T00:33:47;5.50;93.10
43808;DHT22;29438;50.664;10.098;2024-03-02T00:36:20;5.40;93.20
43808;DHT22;29438;50.664;10.098;2024-03-02T00:38:48;5.50;93.40
43808;DHT22;29438;50.664;10.098;2024-03-02T00:41:31;5.50;93.50
43808;DHT22;29438;50.664;10.098;2024-03-02T00:44:01;5.60;93.50
43808;DHT22;29438;50.664;10.098;2024-03-02T00:46:32;5.60;93.40
43808;DHT22;29438;50.664;10.098;2024-03-02T00:49:03;5.60;93.40
43808;DHT22;29438;50.664;10.098;2024-03-02T00:51:30;5.50;93.40
43808;DHT22;29438;50.664;10.098;2024-03-02T00:53:59;5.50;93.50
43808;DHT22;29438;50.664;10.098;2024-03-02T00:56:25;5.60;93.50
43808;DHT22;29438;50.664;10.098;2024-03-02T00:58:52;5.60;93.50
43808;DHT22;29438;50.664;10.098;2024-03-02T01:01:18;5.60;93.50
43808;DHT22;29438;50.664;10.098;2024-03-02T01:03:45;5.60;93.50
43808;DHT22;29438;50.664;10.098;2024-03-02T01:06:11;5.60;93.40
43808;DHT22;29438;50.664;10.098;2024-03-02T01:08:37;5.60;93.40
43808;DHT22;29438;50.664;10.098;2024-03-02T01:11:03;5.60;93.40
43808;DHT22;29438;50.664;10.098;2024-03-02T01:13:29;5.60;93.40
43808;DHT22;29438;50.664;10.098;2024-03-02T01:15:55;5.60;93.40
43808;DHT22;29438;50.664;10.098;2024-03-02T01:18:20;5.50;93.40
43808;DHT22;29438;50.664;10.098;2024-03-02T01:20:47;5.50;93.40
43808;DHT22;29438;50.664;10.098;2024-03-02T01:23:13;5.40;93.30
43808;DHT22;29438;50.664;10.098;2024-03-02T01:25:38;5.30;93.20
43808;DHT22;29438;50.664;10.098;2024-03-02T01:28:04;5.20;93.20
43808;DHT22;29438;50.664;10.098;2024-03-02T01:30:30;5.00;93.30
43808;DHT22;29438;50.664;10.098;2024-03-02T01:32:56;5.00;93.50
43808;DHT22;29438;50.664;10.098;2024-03-02T01:35:21;5.00;93.60
43808;DHT22;29438;50.664;10.098;2024-03-02T01:37:47;4.90;93.80
43808;DHT22;29438;50.664;10.098;2024-03-02T01:40:12;5.00;94.00
43808;DHT22;29438;50.664;10.098;2024-03-02T01:42:38;4.90;94.00
43808;DHT22;29438;50.664;10.098;2024-03-02T01:45:08;4.90;94.00
43808;DHT22;29438;50.664;10.098;2024-03-02T01:47:34;4.80;94.10
43808;DHT22;29438;50.664;10.098;2024-03-02T01:50:00;4.80;94.10
43808;DHT22;29438;50.664;10.098;2024-03-02T01:52:26;4.60;94.10
43808;DHT22;29438;50.664;10.098;2024-03-02T01:54:52;4.50;94.10
43808;DHT22;29438;50.664;10.098;2024-03-02T01:57:18;4.30;94.10
43808;DHT22;29438;50.664;10.098;2024-03-02T01:59:44;4.20;94.10
43808;DHT22;29438;50.664;10.098;2024-03-02T02:02:10;4.10;94.20
43808;DHT22;29438;50.664;10.098;2024-03-02T02:04:35;4.00;94.30
43808;DHT22;29438;50.664;10.098;2024-03-02T02:07:01;4.00;94.30
43808;DHT22;29438;50.664;10.098;2024-03-02T02:09:26;3.90;94.40
43808;DHT22;29438;50.664;10.098;2024-03-02T02:11:52;4.00;94.50
43808;DHT22;29438;50.664;10.098;2024-03-02T02:14:18;3.80;94.50
43808;DHT22;29438;50.664;10.098;2024-03-02T02:16:43;3.90;94.60
43808;DHT22;29438;50.664;10.098;2024-03-02T02:19:09;3.90;94.60
43808;DHT22;29438;50.664;10.098;2024-03-02T02:21:35;3.80;94.60
43808;DHT22;29438;50.664;10.098;2024-03-02T02:24:01;3.80;94.60
43808;DHT22;29438;50.664;10.098;2024-03-02T02:26:28;3.80;94.70
43808;DHT22;29438;50.664;10.098;2024-03-02T02:28:54;3.90;94.80
43808;DHT22;29438;50.664;10.098;2024-03-02T02:31:20;4.00;94.80
43808;DHT22;29438;50.664;10.098;2024-03-02T02:33:45;3.90;94.90
43808;DHT22;29438;50.664;10.098;2024-03-02T02:36:11;4.00;94.90
43808;DHT22;29438;50.664;10.098;2024-03-02T02:38:40;4.10;95.00
43808;DHT22;29438;50.664;10.098;2024-03-02T02:41:07;4.20;95.10
43808;DHT22;29438;50.664;10.098;2024-03-02T02:43:32;4.10;95.10
43808;DHT22;29438;50.664;10.098;2024-03-02T02:45:58;4.10;95.00
43808;DHT22;29438;50.664;10.098;2024-03-02T02:48:23;4.20;95.20
43808;DHT22;29438;50.664;10.098;2024-03-02T02:50:49;4.30;95.30
43808;DHT22;29438;50.664;10.098;2024-03-02T02:53:14;4.60;95.40
43808;DHT22;29438;50.664;10.098;2024-03-02T02:55:40;4.90;95.50
43808;DHT22;29438;50.664;10.098;2024-03-02T02:58:06;5.20;95.40
43808;DHT22;29438;50.664;10.098;2024-03-02T03:00:32;5.20;95.30
43808;DHT22;29438;50.664;10.098;2024-03-02T03:02:58;5.30;95.20
43808;DHT22;29438;50.664;10.098;2024-03-02T03:05:23;5.30;95.10
43808;DHT22;29438;50.664;10.098;2024-03-02T03:07:49;5.30;94.90
43808;DHT22;29438;50.664;10.098;2024-03-02T03:10:15;5.30;94.80
43808;DHT22;29438;50.664;10.098;2024-03-02T03:12:41;5.30;94.70
43808;DHT22;29438;50.664;10.098;2024-03-02T03:15:08;5.30;94.70
43808;DHT22;29438;50.664;10.098;2024-03-02T03:17:34;5.30;94.60
43808;DHT22;29438;50.664;10.098;2024-03-02T03:20:01;5.30;94.60
43808;DHT22;29438;50.664;10.098;2024-03-02T03:22:28;5.40;94.50
43808;DHT22;29438;50.664;10.098;2024-03-02T03:24:53;5.40;94.40
43808;DHT22;29438;50.664;10.098;2024-03-02T03:27:19;5.30;94.40
43808;DHT22;29438;50.664;10.098;2024-03-02T03:29:48;5.30;94.30
43808;DHT22;29438;50.664;10.098;2024-03-02T03:32:13;5.30;94.30
43808;DHT22;29438;50.664;10.098;2024-03-02T03:34:39;5.30;94.20
43808;DHT22;29438;50.664;10.098;2024-03-02T03:37:05;5.30;94.20
43808;DHT22;29438;50.664;10.098;2024-03-02T03:39:31;5.30;94.20
43808;DHT22;29438;50.664;10.098;2024-03-02T03:41:56;5.30;94.20
43808;DHT22;29438;50.664;10.098;2024-03-02T03:44:22;5.30;94.20
43808;DHT22;29438;50.664;10.098;2024-03-02T03:46:48;5.30;94.10
43808;DHT22;29438;50.664;10.098;2024-03-02T03:49:13;5.20;94.10
43808;DHT22;29438;50.664;10.098;2024-03-02T03:51:39;5.20;94.10
43808;DHT22;29438;50.664;10.098;2024-03-02T03:54:04;5.20;94.10
43808;DHT22;29438;50.664;10.098;2024-03-02T03:56:30;5.20;94.10
43808;DHT22;29438;50.664;10.098;2024-03-02T03:58:55;5.20;94.10
43808;DHT22;29438;50.664;10.098;2024-03-02T04:01:21;5.20;94.20
43808;DHT22;29438;50.664;10.098;2024-03-02T04:03:48;5.20;94.20
43808;DHT22;29438;50.664;10.098;2024-03-02T04:06:13;5.20;94.20
43808;DHT22;29438;50.664;10.098;2024-03-02T04:08:41;5.30;94.10
43808;DHT22;29438;50.664;10.098;2024-03-02T04:11:06;5.20;94.00
43808;DHT22;29438;50.664;10.098;2024-03-02T04:13:33;5.10;94.00
43808;DHT22;29438;50.664;10.098;2024-03-02T04:15:58;5.00;94.00
43808;DHT22;29438;50.664;10.098;2024-03-02T04:18:24;5.10;94.10
43808;DHT22;29438;50.664;10.098;2024-03-02T04:20:49;5.00;94.10
43808;DHT22;29438;50.664;10.098;2024-03-02T04:23:15;5.00;94.00
43808;DHT22;29438;50.664;10.098;2024-03-02T04:25:40;4.90;93.90
43808;DHT22;29438;50.664;10.098;2024-03-02T04:28:06;4.80;93.90
43808;DHT22;29438;50.664;10.098;2024-03-02T04:30:31;4.70;94.00
43808;DHT22;29438;50.664;10.098;2024-03-02T04:32:57;4.60;94.00
43808;DHT22;29438;50.664;10.098;2024-03-02T04:35:23;4.40;94.00
43808;DHT22;29438;50.664;10.098;2024-03-02T04:37:48;4.30;94.00
43808;DHT22;29438;50.664;10.098;2024-03-02T04:40:14;4.30;94.30
43808;DHT22;29438;50.664;10.098;2024-03-02T04:42:40;4.20;94.30
43808;DHT22;29438;50.664;10.098;2024-03-02T04:45:06;4.10;94.20
43808;DHT22;29438;50.664;10.098;2024-03-02T04:47:32;4.20;94.40
43808;DHT22;29438;50.664;10.098;2024-03-02T04:49:58;4.00;94.30
43808;DHT22;29438;50.664;10.098;2024-03-02T04:52:23;3.90;94.40
43808;DHT22;29438;50.664;10.098;2024-03-02T04:54:49;4.00;94.60
43808;DHT22;29438;50.664;10.098;2024-03-02T04:57:33;4.00;94.80
43808;DHT22;29438;50.664;10.098;2024-03-02T04:59:58;4.20;94.90
43808;DHT22;29438;50.664;10.098;2024-03-02T05:02:24;4.30;95.00
43808;DHT22;29438;50.664;10.098;2024-03-02T05:04:49;4.20;95.00
43808;DHT22;29438;50.664;10.098;2024-03-02T05:07:15;4.30;95.00
43808;DHT22;29438;50.664;10.098;2024-03-02T05:09:41;4.20;95.00
43808;DHT22;29438;50.664;10.098;2024-03-02T05:12:07;4.20;94.80
43808;DHT22;29438;50.664;10.098;2024-03-02T05:14:42;4.10;94.80
43808;DHT22;29438;50.664;10.098;2024-03-02T05:17:07;4.00;94.80
43808;DHT22;29438;50.664;10.098;2024-03-02T05:19:33;4.10;95.00
43808;DHT22;29438;50.664;10.098;2024-03-02T05:21:58;4.10;95.00
43808;DHT22;29438;50.664;10.098;2024-03-02T05:24:24;3.90;94.80
43808;DHT22;29438;50.664;10.098;2024-03-02T05:26:52;3.60;94.70
43808;DHT22;29438;50.664;10.098;2024-03-02T05:29:18;3.60;95.10
43808;DHT22;29438;50.664;10.098;2024-03-02T05:31:44;3.60;95.00
43808;DHT22;29438;50.664;10.098;2024-03-02T05:34:09;3.60;95.00
43808;DHT22;29438;50.664;10.098;2024-03-02T05:36:35;3.60;95.10
43808;DHT22;29438;50.664;10.098;2024-03-02T05:39:00;3.50;95.00
43808;DHT22;29438;50.664;10.098;2024-03-02T05:41:26;3.40;95.00
43808;DHT22;29438;50.664;10.098;2024-03-02T05:43:52;3.30;95.00
43808;DHT22;29438;50.664;10.098;2024-03-02T05:46:18;3.50;95.20
43808;DHT22;29438;50.664;10.098;2024-03-02T05:48:43;3.50;95.20
43808;DHT22;29438;50.664;10.098;2024-03-02T05:51:09;3.30;95.00
43808;DHT22;29438;50.664;10.098;2024-03-02T05:53:34;3.30;95.10
43808;DHT22;29438;50.664;10.098;2024-03-02T05:56:00;3.40;95.30
43808;DHT22;29438;50.664;10.098;2024-03-02T05:58:25;3.60;95.40
43808;DHT22;29438;50.664;10.098;2024-03-02T06:01:02;3.70;95.40
43808;DHT22;29438;50.664;10.098;2024-03-02T06:03:28;3.80;95.40
43808;DHT22;29438;50.664;10.098;2024-03-02T06:05:54;3.90;95.30
43808;DHT22;29438;50.664;10.098;2024-03-02T06:08:20;4.00;95.30
43808;DHT22;29438;50.664;10.098;2024-03-02T06:10:45;3.90;95.20
43808;DHT22;29438;50.664;10.098;2024-03-02T06:13:11;3.90;95.20
43808;DHT22;29438;50.664;10.098;2024-03-02T06:15:37;4.00;95.20
43808;DHT22;29438;50.664;10.098;2024-03-02T06:18:03;4.00;95.20
43808;DHT22;29438;50.664;10.098;2024-03-02T06:20:28;4.00;95.20
43808;DHT22;29438;50.664;10.098;2024-03-02T06:22:56;4.20;95.20
43808;DHT22;29438;50.664;10.098;2024-03-02T06:25:22;4.20;95.00
43808;DHT22;29438;50.664;10.098;2024-03-02T06:27:47;4.20;94.90
43808;DHT22;29438;50.664;10.098;2024-03-02T06:30:13;4.20;94.80
43808;DHT22;29438;50.664;10.098;2024-03-02T06:32:38;4.30;94.70
43808;DHT22;29438;50.664;10.098;2024-03-02T06:35:04;4.30;94.50
43808;DHT22;29438;50.664;10.098;2024-03-02T06:37:31;4.40;94.30
43808;DHT22;29438;50.664;10.098;2024-03-02T06:39:56;4.50;94.00
43808;DHT22;29438;50.664;10.098;2024-03-02T06:42:22;4.70;94.10
43808;DHT22;29438;50.664;10.098;2024-03-02T06:44:47;4.90;93.60
43808;DHT22;29438;50.664;10.098;2024-03-02T06:47:13;5.20;93.00
43808;DHT22;29438;50.664;10.098;2024-03-02T06:49:38;5.50;92.10
43808;DHT22;29438;50.664;10.098;2024-03-02T06:52:04;5.70;91.40
43808;DHT22;29438;50.664;10.098;2024-03-02T06:54:29;5.50;90.40
43808;DHT22;29438;50.664;10.098;2024-03-02T06:56:55;5.30;90.10
43808;DHT22;29438;50.664;10.098;2024-03-02T06:59:20;5.30;90.50
43808;DHT22;29438;50.664;10.098;2024-03-02T07:01:46;5.30;90.40
43808;DHT22;29438;50.664;10.098;2024-03-02T07:04:12;5.30;90.40
43808;DHT22;29438;50.664;10.098;2024-03-02T07:06:37;5.40;90.30
43808;DHT22;29438;50.664;10.098;2024-03-02T07:09:03;5.40;90.20
43808;DHT22;29438;50.664;10.098;2024-03-02T07:11:28;5.60;90.00
43808;DHT22;29438;50.664;10.098;2024-03-02T07:13:54;5.70;89.90
43808;DHT22;29438;50.664;10.098;2024-03-02T07:16:19;5.80;89.10
43808;DHT22;29438;50.664;10.098;2024-03-02T07:18:55;5.80;88.90
43808;DHT22;29438;50.664;10.098;2024-03-02T07:21:22;5.80;88.30
43808;DHT22;29438;50.664;10.098;2024-03-02T07:23:48;6.00;88.50
43808;DHT22;29438;50.664;10.098;2024-03-02T07:26:14;6.00;87.70
43808;DHT22;29438;50.664;10.098;2024-03-02T07:28:41;6.00;87.90
43808;DHT22;29438;50.664;10.098;2024-03-02T07:31:06;6.10;87.70
43808;DHT22;29438;50.664;10.098;2024-03-02T07:33:32;6.30;87.60
43808;DHT22;29438;50.664;10.098;2024-03-02T07:35:59;6.50;87.00
43808;DHT22;29438;50.664;10.098;2024-03-02T07:38:26;6.50;86.80
43808;DHT22;29438;50.664;10.098;2024-03-02T07:40:52;6.60;86.70
43808;DHT22;29438;50.664;10.098;2024-03-02T07:43:18;6.90;86.30
43808;DHT22;29438;50.664;10.098;2024-03-02T07:45:45;7.00;85.30
43808;DHT22;29438;50.664;10.098;2024-03-02T07:48:10;7.20;84.90
43808;DHT22;29438;50.664;10.098;2024-03-02T07:50:36;7.20;84.40
43808;DHT22;29438;50.664;10.098;2024-03-02T07:53:03;7.40;83.20
43808;DHT22;29438;50.664;10.098;2024-03-02T07:55:29;7.70;83.70
43808;DHT22;29438;50.664;10.098;2024-03-02T07:58:00;7.90;82.90
43808;DHT22;29438;50.664;10.098;2024-03-02T08:00:26;8.20;81.30
43808;DHT22;29438;50.664;10.098;2024-03-02T08:02:52;8.60;80.60
43808;DHT22;29438;50.664;10.098;2024-03-02T08:05:18;8.90;79.40
43808;DHT22;29438;50.664;10.098;2024-03-02T08:07:47;8.90;78.70
43808;DHT22;29438;50.664;10.098;2024-03-02T08:10:13;8.90;78.50
43808;DHT22;29438;50.664;10.098;2024-03-02T08:12:39;9.20;78.60
43808;DHT22;29438;50.664;10.098;2024-03-02T08:15:05;9.50;76.70
43808;DHT22;29438;50.664;10.098;2024-03-02T08:17:31;9.50;76.40
43808;DHT22;29438;50.664;10.098;2024-03-02T08:19:57;9.80;75.70
43808;DHT22;29438;50.664;10.098;2024-03-02T08:22:23;9.90;75.60
43808;DHT22;29438;50.664;10.098;2024-03-02T08:24:51;9.70;75.70
43808;DHT22;29438;50.664;10.098;2024-03-02T08:27:17;10.30;73.40
43808;DHT22;29438;50.664;10.098;2024-03-02T08:29:43;10.70;72.60
43808;DHT22;29438;50.664;10.098;2024-03-02T08:32:08;10.60;72.30
43808;DHT22;29438;50.664;10.098;2024-03-02T08:34:34;10.30;73.40
43808;DHT22;29438;50.664;10.098;2024-03-02T08:37:01;9.30;75.40
43808;DHT22;29438;50.664;10.098;2024-03-02T08:39:27;9.10;76.90
43808;DHT22;29438;50.664;10.098;2024-03-02T08:41:52;8.70;77.70
43808;DHT22;29438;50.664;10.098;2024-03-02T08:44:18;8.70;78.80
43808;DHT22;29438;50.664;10.098;2024-03-02T08:46:44;8.80;78.00
43808;DHT22;29438;50.664;10.098;2024-03-02T08:49:10;8.80;78.20
43808;DHT22;29438;50.664;10.098;2024-03-02T08:51:35;9.10;77.80
43808;DHT22;29438;50.664;10.098;2024-03-02T08:54:01;9.40;77.60
43808;DHT22;29438;50.664;10.098;2024-03-02T08:56:27;9.60;76.20
43808;DHT22;29438;50.664;10.098;2024-03-02T08:58:52;9.80;75.50
43808;DHT22;29438;50.664;10.098;2024-03-02T09:01:18;10.30;74.80
43808;DHT22;29438;50.664;10.098;2024-03-02T09:03:45;10.20;73.20
43808;DHT22;29438;50.664;10.098;2024-03-02T09:06:11;9.90;73.50
43808;DHT22;29438;50.664;10.098;2024-03-02T09:08:36;9.60;75.20
43808;DHT22;29438;50.664;10.098;2024-03-02T09:11:05;9.60;75.40
43808;DHT22;29438;50.664;10.098;2024-03-02T09:13:31;9.70;74.90
43808;DHT22;29438;50.664;10.098;2024-03-02T09:15:57;10.00;75.50
43808;DHT22;29438;50.664;10.098;2024-03-02T09:18:22;10.00;75.70
43808;DHT22;29438;50.664;10.098;2024-03-02T09:20:48;10.00;75.80
43808;DHT22;29438;50.664;10.098;2024-03-02T09:23:14;10.30;74.80
43808;DHT22;29438;50.664;10.098;2024-03-02T09:25:40;10.50;74.80
43808;DHT22;29438;50.664;10.098;2024-03-02T09:28:05;10.60;74.10
43808;DHT22;29438;50.664;10.098;2024-03-02T09:30:32;10.80;73.70
43808;DHT22;29438;50.664;10.098;2024-03-02T09:32:57;11.00;72.90
43808;DHT22;29438;50.664;10.098;2024-03-02T09:35:23;11.20;71.10
43808;DHT22;29438;50.664;10.098;2024-03-02T09:37:48;10.80;71.20
43808;DHT22;29438;50.664;10.098;2024-03-02T09:40:14;11.00;71.20
43808;DHT22;29438;50.664;10.098;2024-03-02T09:42:40;10.60;72.30
43808;DHT22;29438;50.664;10.098;2024-03-02T09:45:06;10.50;73.40
43808;DHT22;29438;50.664;10.098;2024-03-02T09:47:32;11.10;70.90
43808;DHT22;29438;50.664;10.098;2024-03-02T09:49:58;11.20;71.70
43808;DHT22;29438;50.664;10.098;2024-03-02T09:52:23;10.40;73.00
43808;DHT22;29438;50.664;10.098;2024-03-02T09:54:49;10.30;74.00
43808;DHT22;29438;50.664;10.098;2024-03-02T09:57:15;10.40;73.70
43808;DHT22;29438;50.664;10.098;2024-03-02T09:59:41;10.60;74.00
43808;DHT22;29438;50.664;10.098;2024-03-02T10:02:07;10.70;72.70
43808;DHT22;29438;50.664;10.098;2024-03-02T10:04:33;10.70;71.10
43808;DHT22;29438;50.664;10.098;2024-03-02T10:07:13;10.50;72.70
43808;DHT22;29438;50.664;10.098;2024-03-02T10:09:39;10.90;72.60
43808;DHT22;29438;50.664;10.098;2024-03-02T10:12:07;10.80;71.90
43808;DHT22;29438;50.664;10.098;2024-03-02T10:14:33;11.30;69.30
43808;DHT22;29438;50.664;10.098;2024-03-02T10:17:02;11.20;69.90
43808;DHT22;29438;50.664;10.098;2024-03-02T10:19:28;11.20;70.10
43808;DHT22;29438;50.664;10.098;2024-03-02T10:21:58;11.40;68.90
43808;DHT22;29438;50.664;10.098;2024-03-02T10:24:24;11.20;68.70
43808;DHT22;29438;50.664;10.098;2024-03-02T10:26:51;11.10;70.20
43808;DHT22;29438;50.664;10.098;2024-03-02T10:29:17;10.70;68.70
43808;DHT22;29438;50.664;10.098;2024-03-02T10:31:44;10.80;69.40
43808;DHT22;29438;50.664;10.098;2024-03-02T10:34:11;10.80;70.50
43808;DHT22;29438;50.664;10.098;2024-03-02T10:36:40;11.10;70.50
43808;DHT22;29438;50.664;10.098;2024-03-02T10:39:07;11.40;69.80
43808;DHT22;29438;50.664;10.098;2024-03-02T10:41:34;11.50;67.40
43808;DHT22;29438;50.664;10.098;2024-03-02T10:44:06;11.80;67.30
43808;DHT22;29438;50.664;10.098;2024-03-02T10:46:33;12.50;66.40
43808;DHT22;29438;50.664;10.098;2024-03-02T10:49:02;12.80;65.80
43808;DHT22;29438;50.664;10.098;2024-03-02T10:51:31;12.80;63.10
43808;DHT22;29438;50.664;10.098;2024-03-02T10:53:58;12.70;64.30
43808;DHT22;29438;50.664;10.098;2024-03-02T10:56:32;13.20;64.00
43808;DHT22;29438;50.664;10.098;2024-03-02T11:01:37;12.40;65.90
43808;DHT22;29438;50.664;10.098;2024-03-02T11:04:04;12.20;68.40
43808;DHT22;29438;50.664;10.098;2024-03-02T11:06:34;12.30;65.50
43808;DHT22;29438;50.664;10.098;2024-03-02T11:09:06;12.30;67.60
43808;DHT22;29438;50.664;10.098;2024-03-02T11:11:40;11.80;69.20
43808;DHT22;29438;50.664;10.098;2024-03-02T11:14:13;11.80;69.40
43808;DHT22;29438;50.664;10.098;2024-03-02T11:16:39;11.70;69.20
43808;DHT22;29438;50.664;10.098;2024-03-02T11:19:08;11.50;70.10
43808;DHT22;29438;50.664;10.098;2024-03-02T11:21:35;11.40;70.20
43808;DHT22;29438;50.664;10.098;2024-03-02T11:26:46;11.30;71.00
43808;DHT22;29438;50.664;10.098;2024-03-02T11:32:13;11.30;71.30
43808;DHT22;29438;50.664;10.098;2024-03-02T11:34:41;11.50;70.70
43808;DHT22;29438;50.664;10.098;2024-03-02T11:37:15;11.70;69.20
43808;DHT22;29438;50.664;10.098;2024-03-02T11:39:41;11.60;69.00
43808;DHT22;29438;50.664;10.098;2024-03-02T11:42:07;11.60;70.00
43808;DHT22;29438;50.664;10.098;2024-03-02T11:44:37;11.50;68.90
43808;DHT22;29438;50.664;10.098;2024-03-02T11:47:06;11.30;70.30
43808;DHT22;29438;50.664;10.098;2024-03-02T11:49:49;11.70;70.70
43808;DHT22;29438;50.664;10.098;2024-03-02T11:52:16;11.90;68.20
43808;DHT22;29438;50.664;10.098;2024-03-02T11:54:44;11.90;68.60
43808;DHT22;29438;50.664;10.098;2024-03-02T11:57:21;11.90;68.70
43808;DHT22;29438;50.664;10.098;2024-03-02T11:59:51;11.90;67.70
43808;DHT22;29438;50.664;10.098;2024-03-02T12:02:19;12.00;67.40
43808;DHT22;29438;50.664;10.098;2024-03-02T12:04:45;11.50;68.30
43808;DHT22;29438;50.664;10.098;2024-03-02T12:07:12;11.50;69.80
43808;DHT22;29438;50.664;10.098;2024-03-02T12:09:38;11.60;68.10
43808;DHT22;29438;50.664;10.098;2024-03-02T12:12:08;11.80;68.30
43808;DHT22;29438;50.664;10.098;2024-03-02T12:14:35;11.70;66.90
43808;DHT22;29438;50.664;10.098;2024-03-02T12:17:01;11.80;66.40
43808;DHT22;29438;50.664;10.098;2024-03-02T12:19:28;11.80;64.00
43808;DHT22;29438;50.664;10.098;2024-03-02T12:21:56;11.70;63.90
43808;DHT22;29438;50.664;10.098;2024-03-02T12:24:21;11.90;65.90
43808;DHT22;29438;50.664;10.098;2024-03-02T12:26:49;12.20;65.50
43808;DHT22;29438;50.664;10.098;2024-03-02T12:29:15;12.00;61.20
43808;DHT22;29438;50.664;10.098;2024-03-02T12:31:42;11.70;62.70
43808;DHT22;29438;50.664;10.098;2024-03-02T12:34:08;11.50;62.80
43808;DHT22;29438;50.664;10.098;2024-03-02T12:36:38;11.80;61.30
43808;DHT22;29438;50.664;10.098;2024-03-02T12:39:04;11.70;61.40
43808;DHT22;29438;50.664;10.098;2024-03-02T12:41:29;11.90;60.60
43808;DHT22;29438;50.664;10.098;2024-03-02T12:43:55;12.00;60.40
43808;DHT22;29438;50.664;10.098;2024-03-02T12:46:20;12.20;57.90
43808;DHT22;29438;50.664;10.098;2024-03-02T12:48:46;12.20;57.40
43808;DHT22;29438;50.664;10.098;2024-03-02T12:51:12;12.20;58.70
43808;DHT22;29438;50.664;10.098;2024-03-02T12:53:37;12.20;58.40
43808;DHT22;29438;50.664;10.098;2024-03-02T12:56:03;12.30;59.10
43808;DHT22;29438;50.664;10.098;2024-03-02T12:58:29;11.90;57.90
43808;DHT22;29438;50.664;10.098;2024-03-02T13:01:06;12.20;58.20
43808;DHT22;29438;50.664;10.098;2024-03-02T13:03:36;12.20;57.00
43808;DHT22;29438;50.664;10.098;2024-03-02T13:06:01;12.20;57.30
43808;DHT22;29438;50.664;10.098;2024-03-02T13:08:27;12.30;55.10
43808;DHT22;29438;50.664;10.098;2024-03-02T13:10:52;12.20;53.70
43808;DHT22;29438;50.664;10.098;2024-03-02T13:13:18;12.10;52.50
43808;DHT22;29438;50.664;10.098;2024-03-02T13:15:44;12.00;54.60
43808;DHT22;29438;50.664;10.098;2024-03-02T13:18:11;12.00;52.40
43808;DHT22;29438;50.664;10.098;2024-03-02T13:20:36;12.20;53.30
43808;DHT22;29438;50.664;10.098;2024-03-02T13:23:02;12.20;55.30
43808;DHT22;29438;50.664;10.098;2024-03-02T13:25:28;12.10;59.20
43808;DHT22;29438;50.664;10.098;2024-03-02T13:27:53;12.50;59.40
43808;DHT22;29438;50.664;10.098;2024-03-02T13:30:19;12.70;56.60
43808;DHT22;29438;50.664;10.098;2024-03-02T13:32:44;12.70;57.80
43808;DHT22;29438;50.664;10.098;2024-03-02T13:35:10;12.50;59.90
43808;DHT22;29438;50.664;10.098;2024-03-02T13:37:36;12.30;59.90
43808;DHT22;29438;50.664;10.098;2024-03-02T13:40:02;12.10;60.40
43808;DHT22;29438;50.664;10.098;2024-03-02T13:42:29;12.00;60.10
43808;DHT22;29438;50.664;10.098;2024-03-02T13:44:55;11.80;60.60
43808;DHT22;29438;50.664;10.098;2024-03-02T13:47:20;11.90;61.20
43808;DHT22;29438;50.664;10.098;2024-03-02T13:49:46;12.20;60.90
43808;DHT22;29438;50.664;10.098;2024-03-02T13:52:14;12.10;60.00
43808;DHT22;29438;50.664;10.098;2024-03-02T13:54:41;12.00;59.60
43808;DHT22;29438;50.664;10.098;2024-03-02T13:57:07;12.10;58.60
43808;DHT22;29438;50.664;10.098;2024-03-02T13:59:34;12.00;58.20
43808;DHT22;29438;50.664;10.098;2024-03-02T14:02:02;11.90;58.60
43808;DHT22;29438;50.664;10.098;2024-03-02T14:04:32;11.80;60.30
43808;DHT22;29438;50.664;10.098;2024-03-02T14:06:58;11.90;60.60
43808;DHT22;29438;50.664;10.098;2024-03-02T14:09:24;12.00;60.40
43808;DHT22;29438;50.664;10.098;2024-03-02T14:11:50;12.10;60.30
43808;DHT22;29438;50.664;10.098;2024-03-02T14:14:17;12.20;60.40
43808;DHT22;29438;50.664;10.098;2024-03-02T14:16:43;12.20;61.20
43808;DHT22;29438;50.664;10.098;2024-03-02T14:19:08;12.20;61.70
43808;DHT22;29438;50.664;10.098;2024-03-02T14:21:35;11.90;61.90
43808;DHT22;29438;50.664;10.098;2024-03-02T14:24:01;11.70;62.70
43808;DHT22;29438;50.664;10.098;2024-03-02T14:26:27;11.60;62.90
43808;DHT22;29438;50.664;10.098;2024-03-02T14:28:53;11.70;63.80
43808;DHT22;29438;50.664;10.098;2024-03-02T14:31:19;11.90;63.50
43808;DHT22;29438;50.664;10.098;2024-03-02T14:33:45;11.90;62.10
43808;DHT22;29438;50.664;10.098;2024-03-02T14:36:11;11.80;63.00
43808;DHT22;29438;50.664;10.098;2024-03-02T14:38:37;11.60;62.20
43808;DHT22;29438;50.664;10.098;2024-03-02T14:41:03;11.50;63.10
43808;DHT22;29438;50.664;10.098;2024-03-02T14:43:29;11.60;64.00
43808;DHT22;29438;50.664;10.098;2024-03-02T14:45:55;11.60;64.00
43808;DHT22;29438;50.664;10.098;2024-03-02T14:48:21;11.50;64.30
43808;DHT22;29438;50.664;10.098;2024-03-02T14:50:46;11.40;64.80
43808;DHT22;29438;50.664;10.098;2024-03-02T14:53:12;11.40;64.00
43808;DHT22;29438;50.664;10.098;2024-03-02T14:55:38;11.40;64.20
43808;DHT22;29438;50.664;10.098;2024-03-02T14:58:03;11.30;64.60
43808;DHT22;29438;50.664;10.098;2024-03-02T15:00:29;11.30;64.50
43808;DHT22;29438;50.664;10.098;2024-03-02T15:02:54;11.30;65.40
43808;DHT22;29438;50.664;10.098;2024-03-02T15:05:20;11.40;65.00
43808;DHT22;29438;50.664;10.098;2024-03-02T15:07:45;11.30;66.10
43808;DHT22;29438;50.664;10.098;2024-03-02T15:10:11;11.30;65.50
43808;DHT22;29438;50.664;10.098;2024-03-02T15:12:37;11.30;66.20
43808;DHT22;29438;50.664;10.098;2024-03-02T15:15:02;11.20;66.40
43808;DHT22;29438;50.664;10.098;2024-03-02T15:17:29;11.30;66.70
43808;DHT22;29438;50.664;10.098;2024-03-02T15:19:54;11.20;67.00
43808;DHT22;29438;50.664;10.098;2024-03-02T15:22:20;11.10;66.70
43808;DHT22;29438;50.664;10.098;2024-03-02T15:24:45;11.10;67.10
43808;DHT22;29438;50.664;10.098;2024-03-02T15:27:11;11.00;68.00
43808;DHT22;29438;50.664;10.098;2024-03-02T15:29:36;11.00;67.80